sensor_id;sensor_type;location;lat;lon;timestamp;temperature;humidity
41928;DHT22;27616;51.420;6.788;2022-12-22T00:02:00;8.60;99.90
41928;DHT22;27616;51.420;6.788;2022-12-22T00:04:47;8.70;99.90
41928;DHT22;27616;51.420;6.788;2022-12-22T00:07:31;8.60;99.90
41928;DHT22;27616;51.420;6.788;2022-12-22T00:10:16;8.70;99.90
41928;DHT22;27616;51.420;6.788;2022-12-22T00:13:00;8.70;99.90
41928;DHT22;27616;51.420;6.788;2022-12-22T00:15:45;8.70;99.90
41928;DHT22;27616;51.420;6.788;2022-12-22T00:18:29;8.60;99.90
41928;DHT22;27616;51.420;6.788;2022-12-22T00:21:14;8.60;99.90
41928;DHT22;27616;51.420;6.788;2022-12-22T00:23:58;8.60;99.90
41928;DHT22;27616;51.420;6.788;2022-12-22T00:26:44;8.70;99.90
41928;DHT22;27616;51.420;6.788;2022-12-22T00:29:36;8.70;99.90
41928;DHT22;27616;51.420;6.788;2022-12-22T00:32:23;8.60;99.90
41928;DHT22;27616;51.420;6.788;2022-12-22T00:35:12;8.60;99.90
41928;DHT22;27616;51.420;6.788;2022-12-22T00:37:57;8.70;99.90
41928;DHT22;27616;51.420;6.788;2022-12-22T00:40:41;8.70;99.90
41928;DHT22;27616;51.420;6.788;2022-12-22T00:43:25;8.70;99.90
41928;DHT22;27616;51.420;6.788;2022-12-22T00:46:11;8.70;99.90
41928;DHT22;27616;51.420;6.788;2022-12-22T00:48:57;8.70;99.90
41928;DHT22;27616;51.420;6.788;2022-12-22T00:51:41;8.70;99.90
41928;DHT22;27616;51.420;6.788;2022-12-22T00:54:25;8.70;99.90
41928;DHT22;27616;51.420;6.788;2022-12-22T00:57:17;8.70;99.90
41928;DHT22;27616;51.420;6.788;2022-12-22T01:00:04;8.70;99.90
41928;DHT22;27616;51.420;6.788;2022-12-22T01:02:49;8.70;99.90
41928;DHT22;27616;51.420;6.788;2022-12-22T01:05:33;8.70;99.90
41928;DHT22;27616;51.420;6.788;2022-12-22T01:08:18;8.80;99.90
41928;DHT22;27616;51.420;6.788;2022-12-22T01:11:02;8.70;99.90
41928;DHT22;27616;51.420;6.788;2022-12-22T01:13:47;8.70;99.90
41928;DHT22;27616;51.420;6.788;2022-12-22T01:16:31;8.70;99.90
41928;DHT22;27616;51.420;6.788;2022-12-22T01:19:16;8.70;99.90
41928;DHT22;27616;51.420;6.788;2022-12-22T01:22:00;8.70;99.90
41928;DHT22;27616;51.420;6.788;2022-12-22T01:24:44;8.70;99.90
41928;DHT22;27616;51.420;6.788;2022-12-22T01:27:29;8.80;99.90
41928;DHT22;27616;51.420;6.788;2022-12-22T01:30:13;8.80;99.90
41928;DHT22;27616;51.420;6.788;2022-12-22T01:32:58;8.80;99.90
41928;DHT22;27616;51.420;6.788;2022-12-22T01:35:42;8.90;99.90
41928;DHT22;27616;51.420;6.788;2022-12-22T01:38:26;8.90;99.90
41928;DHT22;27616;51.420;6.788;2022-12-22T01:41:16;8.90;99.90
41928;DHT22;27616;51.420;6.788;2022-12-22T01:44:03;8.80;99.90
41928;DHT22;27616;51.420;6.788;2022-12-22T01:46:48;8.90;99.90
41928;DHT22;27616;51.420;6.788;2022-12-22T01:49:36;8.90;99.90
41928;DHT22;27616;51.420;6.788;2022-12-22T01:52:26;8.90;99.90
41928;DHT22;27616;51.420;6.788;2022-12-22T01:55:16;8.90;99.90
41928;DHT22;27616;51.420;6.788;2022-12-22T01:58:04;8.90;99.90
41928;DHT22;27616;51.420;6.788;2022-12-22T02:00:49;8.90;99.90
41928;DHT22;27616;51.420;6.788;2022-12-22T02:03:35;9.00;99.90
41928;DHT22;27616;51.420;6.788;2022-12-22T02:06:33;9.10;99.90
41928;DHT22;27616;51.420;6.788;2022-12-22T02:12:32;9.10;99.90
41928;DHT22;27616;51.420;6.788;2022-12-22T02:19:20;9.10;99.90
41928;DHT22;27616;51.420;6.788;2022-12-22T02:21:31;9.00;99.90
41928;DHT22;27616;51.420;6.788;2022-12-22T02:24:30;9.00;99.90
41928;DHT22;27616;51.420;6.788;2022-12-22T02:27:17;9.10;99.90
41928;DHT22;27616;51.420;6.788;2022-12-22T02:30:05;9.10;99.90
41928;DHT22;27616;51.420;6.788;2022-12-22T02:32:50;9.10;99.90
41928;DHT22;27616;51.420;6.788;2022-12-22T02:42:01;9.10;99.90
41928;DHT22;27616;51.420;6.788;2022-12-22T02:45:18;9.10;99.90
41928;DHT22;27616;51.420;6.788;2022-12-22T02:51:20;9.10;99.90
41928;DHT22;27616;51.420;6.788;2022-12-22T02:54:06;9.10;99.90
41928;DHT22;27616;51.420;6.788;2022-12-22T02:56:50;9.20;99.90
41928;DHT22;27616;51.420;6.788;2022-12-22T02:59:35;9.20;99.90
41928;DHT22;27616;51.420;6.788;2022-12-22T03:02:19;9.20;99.90
41928;DHT22;27616;51.420;6.788;2022-12-22T03:05:04;9.20;99.90
41928;DHT22;27616;51.420;6.788;2022-12-22T03:07:49;9.10;99.90
41928;DHT22;27616;51.420;6.788;2022-12-22T03:10:33;9.20;99.90
41928;DHT22;27616;51.420;6.788;2022-12-22T03:13:17;9.20;99.90
41928;DHT22;27616;51.420;6.788;2022-12-22T03:16:02;9.20;99.90
41928;DHT22;27616;51.420;6.788;2022-12-22T03:18:46;9.20;99.90
41928;DHT22;27616;51.420;6.788;2022-12-22T03:21:30;9.30;99.90
41928;DHT22;27616;51.420;6.788;2022-12-22T03:24:15;9.30;99.90
41928;DHT22;27616;51.420;6.788;2022-12-22T03:26:59;9.30;99.90
41928;DHT22;27616;51.420;6.788;2022-12-22T03:29:25;9.20;99.90
41928;DHT22;27616;51.420;6.788;2022-12-22T03:31:50;9.20;99.90
41928;DHT22;27616;51.420;6.788;2022-12-22T03:34:16;9.30;99.90
41928;DHT22;27616;51.420;6.788;2022-12-22T03:36:42;9.30;99.90
41928;DHT22;27616;51.420;6.788;2022-12-22T03:39:07;9.30;99.90
41928;DHT22;27616;51.420;6.788;2022-12-22T03:41:34;9.20;99.90
41928;DHT22;27616;51.420;6.788;2022-12-22T03:44:19;9.20;99.90
41928;DHT22;27616;51.420;6.788;2022-12-22T03:47:03;9.30;99.90
41928;DHT22;27616;51.420;6.788;2022-12-22T03:49:29;9.20;99.90
41928;DHT22;27616;51.420;6.788;2022-12-22T03:51:54;9.20;99.90
41928;DHT22;27616;51.420;6.788;2022-12-22T03:54:23;9.30;99.90
41928;DHT22;27616;51.420;6.788;2022-12-22T03:56:49;9.30;99.90
41928;DHT22;27616;51.420;6.788;2022-12-22T03:59:16;9.40;99.90
41928;DHT22;27616;51.420;6.788;2022-12-22T04:01:44;9.40;99.90
41928;DHT22;27616;51.420;6.788;2022-12-22T04:04:11;9.40;99.90
41928;DHT22;27616;51.420;6.788;2022-12-22T04:06:37;9.40;99.90
41928;DHT22;27616;51.420;6.788;2022-12-22T04:09:03;9.40;99.90
41928;DHT22;27616;51.420;6.788;2022-12-22T04:11:29;9.40;99.90
41928;DHT22;27616;51.420;6.788;2022-12-22T04:14:13;9.50;99.90
41928;DHT22;27616;51.420;6.788;2022-12-22T04:16:39;9.50;99.90
41928;DHT22;27616;51.420;6.788;2022-12-22T04:19:05;9.50;99.90
41928;DHT22;27616;51.420;6.788;2022-12-22T04:21:32;9.50;99.90
41928;DHT22;27616;51.420;6.788;2022-12-22T04:23:58;9.50;99.90
41928;DHT22;27616;51.420;6.788;2022-12-22T04:26:24;9.50;99.90
41928;DHT22;27616;51.420;6.788;2022-12-22T04:28:51;9.50;99.90
41928;DHT22;27616;51.420;6.788;2022-12-22T04:31:18;9.60;99.90
41928;DHT22;27616;51.420;6.788;2022-12-22T04:33:44;9.50;99.90
41928;DHT22;27616;51.420;6.788;2022-12-22T04:36:10;9.50;99.90
41928;DHT22;27616;51.420;6.788;2022-12-22T04:38:36;9.50;99.90
41928;DHT22;27616;51.420;6.788;2022-12-22T04:41:03;9.50;99.90
41928;DHT22;27616;51.420;6.788;2022-12-22T04:43:29;9.40;99.90
41928;DHT22;27616;51.420;6.788;2022-12-22T04:45:55;9.50;99.90
41928;DHT22;27616;51.420;6.788;2022-12-22T04:48:26;9.50;99.90
41928;DHT22;27616;51.420;6.788;2022-12-22T04:50:54;9.50;99.90
41928;DHT22;27616;51.420;6.788;2022-12-22T04:53:20;9.40;99.90
41928;DHT22;27616;51.420;6.788;2022-12-22T04:55:52;9.50;99.90
41928;DHT22;27616;51.420;6.788;2022-12-22T04:58:19;9.40;99.90
41928;DHT22;27616;51.420;6.788;2022-12-22T05:00:45;9.40;99.90
41928;DHT22;27616;51.420;6.788;2022-12-22T05:03:11;9.50;99.90
41928;DHT22;27616;51.420;6.788;2022-12-22T05:05:36;9.50;99.90
41928;DHT22;27616;51.420;6.788;2022-12-22T05:08:03;9.50;99.90
41928;DHT22;27616;51.420;6.788;2022-12-22T05:10:29;9.50;99.90
41928;DHT22;27616;51.420;6.788;2022-12-22T05:12:55;9.40;99.90
41928;DHT22;27616;51.420;6.788;2022-12-22T05:15:25;9.40;99.90
41928;DHT22;27616;51.420;6.788;2022-12-22T05:17:51;9.40;99.90
41928;DHT22;27616;51.420;6.788;2022-12-22T05:20:18;9.40;99.90
41928;DHT22;27616;51.420;6.788;2022-12-22T05:22:44;9.40;99.90
41928;DHT22;27616;51.420;6.788;2022-12-22T05:25:10;9.50;99.90
41928;DHT22;27616;51.420;6.788;2022-12-22T05:27:35;9.60;99.90
41928;DHT22;27616;51.420;6.788;2022-12-22T05:30:02;9.50;99.90
41928;DHT22;27616;51.420;6.788;2022-12-22T05:32:28;9.50;99.90
41928;DHT22;27616;51.420;6.788;2022-12-22T05:34:54;9.40;99.90
41928;DHT22;27616;51.420;6.788;2022-12-22T05:37:19;9.30;99.90
41928;DHT22;27616;51.420;6.788;2022-12-22T05:39:45;9.40;99.90
41928;DHT22;27616;51.420;6.788;2022-12-22T05:42:11;9.40;99.90
41928;DHT22;27616;51.420;6.788;2022-12-22T05:44:36;9.60;99.90
41928;DHT22;27616;51.420;6.788;2022-12-22T05:47:02;9.60;99.90
41928;DHT22;27616;51.420;6.788;2022-12-22T05:49:27;9.60;99.90
41928;DHT22;27616;51.420;6.788;2022-12-22T05:51:53;9.60;99.90
41928;DHT22;27616;51.420;6.788;2022-12-22T05:54:20;9.50;99.90
41928;DHT22;27616;51.420;6.788;2022-12-22T05:56:46;9.50;99.90
41928;DHT22;27616;51.420;6.788;2022-12-22T05:59:11;9.50;99.90
41928;DHT22;27616;51.420;6.788;2022-12-22T06:01:37;9.50;99.90
41928;DHT22;27616;51.420;6.788;2022-12-22T06:04:03;9.60;99.90
41928;DHT22;27616;51.420;6.788;2022-12-22T06:06:29;9.50;99.90
41928;DHT22;27616;51.420;6.788;2022-12-22T06:08:55;9.50;99.90
41928;DHT22;27616;51.420;6.788;2022-12-22T06:11:20;9.50;99.90
41928;DHT22;27616;51.420;6.788;2022-12-22T06:13:46;9.50;99.90
41928;DHT22;27616;51.420;6.788;2022-12-22T06:16:12;9.50;99.90
41928;DHT22;27616;51.420;6.788;2022-12-22T06:18:37;9.50;99.90
41928;DHT22;27616;51.420;6.788;2022-12-22T06:21:03;9.50;99.90
41928;DHT22;27616;51.420;6.788;2022-12-22T06:23:29;9.50;99.90
41928;DHT22;27616;51.420;6.788;2022-12-22T06:25:56;9.50;99.90
41928;DHT22;27616;51.420;6.788;2022-12-22T06:28:22;9.50;99.90
41928;DHT22;27616;51.420;6.788;2022-12-22T06:30:48;9.50;99.90
41928;DHT22;27616;51.420;6.788;2022-12-22T06:33:14;9.50;99.90
41928;DHT22;27616;51.420;6.788;2022-12-22T06:35:40;9.50;99.90
41928;DHT22;27616;51.420;6.788;2022-12-22T06:38:05;9.50;99.90
41928;DHT22;27616;51.420;6.788;2022-12-22T06:40:31;9.50;99.90
41928;DHT22;27616;51.420;6.788;2022-12-22T06:42:57;9.50;99.90
41928;DHT22;27616;51.420;6.788;2022-12-22T06:45:36;9.50;99.90
41928;DHT22;27616;51.420;6.788;2022-12-22T06:48:02;9.50;99.90
41928;DHT22;27616;51.420;6.788;2022-12-22T06:50:28;9.50;99.90
41928;DHT22;27616;51.420;6.788;2022-12-22T06:52:54;9.50;99.90
41928;DHT22;27616;51.420;6.788;2022-12-22T06:55:19;9.50;99.90
41928;DHT22;27616;51.420;6.788;2022-12-22T06:57:45;9.40;99.90
41928;DHT22;27616;51.420;6.788;2022-12-22T07:00:11;9.40;99.90
41928;DHT22;27616;51.420;6.788;2022-12-22T07:02:37;9.40;99.90
41928;DHT22;27616;51.420;6.788;2022-12-22T07:05:03;9.40;99.90
41928;DHT22;27616;51.420;6.788;2022-12-22T07:07:28;9.40;99.90
41928;DHT22;27616;51.420;6.788;2022-12-22T07:09:54;9.50;99.90
41928;DHT22;27616;51.420;6.788;2022-12-22T07:12:22;9.40;99.90
41928;DHT22;27616;51.420;6.788;2022-12-22T07:14:47;9.40;99.90
41928;DHT22;27616;51.420;6.788;2022-12-22T07:17:13;9.40;99.90
41928;DHT22;27616;51.420;6.788;2022-12-22T07:19:39;9.40;99.90
41928;DHT22;27616;51.420;6.788;2022-12-22T07:22:05;9.40;99.90
41928;DHT22;27616;51.420;6.788;2022-12-22T07:24:30;9.40;99.90
41928;DHT22;27616;51.420;6.788;2022-12-22T07:26:56;9.40;99.90
41928;DHT22;27616;51.420;6.788;2022-12-22T07:29:22;9.30;99.90
41928;DHT22;27616;51.420;6.788;2022-12-22T07:31:48;9.30;99.90
41928;DHT22;27616;51.420;6.788;2022-12-22T07:34:13;9.30;99.90
41928;DHT22;27616;51.420;6.788;2022-12-22T07:36:39;9.20;99.90
41928;DHT22;27616;51.420;6.788;2022-12-22T07:39:05;9.30;99.90
41928;DHT22;27616;51.420;6.788;2022-12-22T07:41:31;9.20;99.90
41928;DHT22;27616;51.420;6.788;2022-12-22T07:44:15;9.20;99.90
41928;DHT22;27616;51.420;6.788;2022-12-22T07:46:41;9.20;99.90
41928;DHT22;27616;51.420;6.788;2022-12-22T07:49:07;9.20;99.90
41928;DHT22;27616;51.420;6.788;2022-12-22T07:51:51;9.20;99.90
41928;DHT22;27616;51.420;6.788;2022-12-22T07:54:17;9.20;99.90
41928;DHT22;27616;51.420;6.788;2022-12-22T07:56:45;9.20;99.90
41928;DHT22;27616;51.420;6.788;2022-12-22T07:59:11;9.20;99.90
41928;DHT22;27616;51.420;6.788;2022-12-22T08:01:38;9.20;99.90
41928;DHT22;27616;51.420;6.788;2022-12-22T08:04:06;9.20;99.90
41928;DHT22;27616;51.420;6.788;2022-12-22T08:06:33;9.20;99.90
41928;DHT22;27616;51.420;6.788;2022-12-22T08:08:59;9.20;99.90
41928;DHT22;27616;51.420;6.788;2022-12-22T08:11:25;9.20;99.90
41928;DHT22;27616;51.420;6.788;2022-12-22T08:13:51;9.20;99.90
41928;DHT22;27616;51.420;6.788;2022-12-22T08:16:16;9.20;99.90
41928;DHT22;27616;51.420;6.788;2022-12-22T08:18:44;9.20;99.90
41928;DHT22;27616;51.420;6.788;2022-12-22T08:21:09;9.20;99.90
41928;DHT22;27616;51.420;6.788;2022-12-22T08:23:35;9.20;99.90
41928;DHT22;27616;51.420;6.788;2022-12-22T08:28:36;9.30;99.90
41928;DHT22;27616;51.420;6.788;2022-12-22T08:31:03;9.20;99.90
41928;DHT22;27616;51.420;6.788;2022-12-22T08:33:29;9.20;99.90
41928;DHT22;27616;51.420;6.788;2022-12-22T08:35:55;9.20;99.90
41928;DHT22;27616;51.420;6.788;2022-12-22T08:38:22;9.20;99.90
41928;DHT22;27616;51.420;6.788;2022-12-22T08:40:48;9.20;99.90
41928;DHT22;27616;51.420;6.788;2022-12-22T08:43:14;9.20;99.90
41928;DHT22;27616;51.420;6.788;2022-12-22T08:45:41;9.20;99.90
41928;DHT22;27616;51.420;6.788;2022-12-22T08:48:08;9.30;99.90
41928;DHT22;27616;51.420;6.788;2022-12-22T08:50:34;9.30;99.90
41928;DHT22;27616;51.420;6.788;2022-12-22T08:53:07;9.30;99.90
41928;DHT22;27616;51.420;6.788;2022-12-22T08:55:33;9.30;99.90
41928;DHT22;27616;51.420;6.788;2022-12-22T08:57:59;9.30;99.90
41928;DHT22;27616;51.420;6.788;2022-12-22T09:00:25;9.30;99.90
41928;DHT22;27616;51.420;6.788;2022-12-22T09:02:50;9.30;99.90
41928;DHT22;27616;51.420;6.788;2022-12-22T09:05:18;9.40;99.90
41928;DHT22;27616;51.420;6.788;2022-12-22T09:07:44;9.30;99.90
41928;DHT22;27616;51.420;6.788;2022-12-22T09:10:11;9.40;99.90
41928;DHT22;27616;51.420;6.788;2022-12-22T09:12:37;9.50;99.90
41928;DHT22;27616;51.420;6.788;2022-12-22T09:15:03;9.50;99.90
41928;DHT22;27616;51.420;6.788;2022-12-22T09:17:30;9.60;99.90
41928;DHT22;27616;51.420;6.788;2022-12-22T09:19:56;9.60;99.90
41928;DHT22;27616;51.420;6.788;2022-12-22T09:22:21;9.60;99.90
41928;DHT22;27616;51.420;6.788;2022-12-22T09:24:47;9.70;99.90
41928;DHT22;27616;51.420;6.788;2022-12-22T09:27:13;9.60;99.90
41928;DHT22;27616;51.420;6.788;2022-12-22T09:29:39;9.60;99.90
41928;DHT22;27616;51.420;6.788;2022-12-22T09:32:05;9.50;99.90
41928;DHT22;27616;51.420;6.788;2022-12-22T09:34:31;9.60;99.90
41928;DHT22;27616;51.420;6.788;2022-12-22T09:36:57;9.50;99.90
41928;DHT22;27616;51.420;6.788;2022-12-22T09:39:23;9.50;99.90
41928;DHT22;27616;51.420;6.788;2022-12-22T09:41:51;9.50;99.90
41928;DHT22;27616;51.420;6.788;2022-12-22T09:44:47;9.50;99.90
41928;DHT22;27616;51.420;6.788;2022-12-22T09:47:41;9.50;99.90
41928;DHT22;27616;51.420;6.788;2022-12-22T09:50:11;9.40;99.90
41928;DHT22;27616;51.420;6.788;2022-12-22T09:52:45;9.40;99.90
41928;DHT22;27616;51.420;6.788;2022-12-22T09:55:59;9.40;99.90
41928;DHT22;27616;51.420;6.788;2022-12-22T09:58:00;9.30;99.90
41928;DHT22;27616;51.420;6.788;2022-12-22T10:00:26;9.30;99.90
41928;DHT22;27616;51.420;6.788;2022-12-22T10:05:38;9.30;99.90
41928;DHT22;27616;51.420;6.788;2022-12-22T10:08:32;9.40;99.90
41928;DHT22;27616;51.420;6.788;2022-12-22T10:10:59;9.40;99.90
41928;DHT22;27616;51.420;6.788;2022-12-22T10:13:25;9.40;99.90
41928;DHT22;27616;51.420;6.788;2022-12-22T10:15:51;9.30;99.90
41928;DHT22;27616;51.420;6.788;2022-12-22T10:18:23;9.30;99.90
41928;DHT22;27616;51.420;6.788;2022-12-22T10:23:31;9.30;99.90
41928;DHT22;27616;51.420;6.788;2022-12-22T10:28:49;9.30;99.90
41928;DHT22;27616;51.420;6.788;2022-12-22T10:33:43;9.20;99.90
41928;DHT22;27616;51.420;6.788;2022-12-22T10:36:11;9.30;99.90
41928;DHT22;27616;51.420;6.788;2022-12-22T10:38:40;9.40;99.90
41928;DHT22;27616;51.420;6.788;2022-12-22T10:41:21;9.50;99.90
41928;DHT22;27616;51.420;6.788;2022-12-22T10:43:51;9.80;99.90
41928;DHT22;27616;51.420;6.788;2022-12-22T10:46:19;10.60;99.90
41928;DHT22;27616;51.420;6.788;2022-12-22T10:48:53;11.50;99.90
41928;DHT22;27616;51.420;6.788;2022-12-22T10:51:31;12.70;99.90
41928;DHT22;27616;51.420;6.788;2022-12-22T10:53:57;14.10;99.90
41928;DHT22;27616;51.420;6.788;2022-12-22T10:56:26;15.20;99.90
41928;DHT22;27616;51.420;6.788;2022-12-22T10:59:17;16.10;99.90
41928;DHT22;27616;51.420;6.788;2022-12-22T11:01:44;16.90;99.90
41928;DHT22;27616;51.420;6.788;2022-12-22T11:04:23;16.80;99.90
41928;DHT22;27616;51.420;6.788;2022-12-22T11:06:50;15.70;99.90
41928;DHT22;27616;51.420;6.788;2022-12-22T11:09:18;15.00;99.90
41928;DHT22;27616;51.420;6.788;2022-12-22T11:11:51;14.20;99.90
41928;DHT22;27616;51.420;6.788;2022-12-22T11:16:50;13.10;99.90
41928;DHT22;27616;51.420;6.788;2022-12-22T11:33:36;12.80;99.90
41928;DHT22;27616;51.420;6.788;2022-12-22T11:36:08;12.50;99.90
41928;DHT22;27616;51.420;6.788;2022-12-22T11:38:49;12.00;99.90
41928;DHT22;27616;51.420;6.788;2022-12-22T11:47:42;11.90;99.90
41928;DHT22;27616;51.420;6.788;2022-12-22T12:01:26;14.10;99.90
41928;DHT22;27616;51.420;6.788;2022-12-22T12:04:06;13.60;99.90
41928;DHT22;27616;51.420;6.788;2022-12-22T12:07:14;13.10;99.90
41928;DHT22;27616;51.420;6.788;2022-12-22T12:09:50;12.70;99.90
41928;DHT22;27616;51.420;6.788;2022-12-22T12:12:25;12.40;99.90
41928;DHT22;27616;51.420;6.788;2022-12-22T12:30:50;11.40;99.90
41928;DHT22;27616;51.420;6.788;2022-12-22T12:33:41;11.50;99.90
41928;DHT22;27616;51.420;6.788;2022-12-22T12:36:15;11.90;99.90
41928;DHT22;27616;51.420;6.788;2022-12-22T12:38:57;12.00;99.90
41928;DHT22;27616;51.420;6.788;2022-12-22T12:44:19;13.20;99.90
41928;DHT22;27616;51.420;6.788;2022-12-22T12:52:09;13.30;99.90
41928;DHT22;27616;51.420;6.788;2022-12-22T12:54:45;13.00;99.90
41928;DHT22;27616;51.420;6.788;2022-12-22T12:59:57;12.40;99.90
41928;DHT22;27616;51.420;6.788;2022-12-22T13:08:11;12.20;99.90
41928;DHT22;27616;51.420;6.788;2022-12-22T13:11:47;12.00;99.90
41928;DHT22;27616;51.420;6.788;2022-12-22T13:13:48;11.80;99.90
41928;DHT22;27616;51.420;6.788;2022-12-22T13:18:46;11.50;99.90
41928;DHT22;27616;51.420;6.788;2022-12-22T13:21:19;11.40;99.90
41928;DHT22;27616;51.420;6.788;2022-12-22T13:26:25;11.10;99.90
41928;DHT22;27616;51.420;6.788;2022-12-22T13:31:53;10.80;99.90
41928;DHT22;27616;51.420;6.788;2022-12-22T13:34:45;10.70;99.90
41928;DHT22;27616;51.420;6.788;2022-12-22T13:37:26;10.50;99.90
41928;DHT22;27616;51.420;6.788;2022-12-22T13:42:46;10.30;99.90
41928;DHT22;27616;51.420;6.788;2022-12-22T13:47:45;10.20;99.90
41928;DHT22;27616;51.420;6.788;2022-12-22T13:50:20;10.10;99.90
41928;DHT22;27616;51.420;6.788;2022-12-22T13:52:48;10.00;99.90
41928;DHT22;27616;51.420;6.788;2022-12-22T13:55:19;9.90;99.90
41928;DHT22;27616;51.420;6.788;2022-12-22T13:57:45;9.90;99.90
41928;DHT22;27616;51.420;6.788;2022-12-22T14:00:23;9.90;99.90
41928;DHT22;27616;51.420;6.788;2022-12-22T14:02:50;9.80;99.90
41928;DHT22;27616;51.420;6.788;2022-12-22T14:05:17;9.80;99.90
41928;DHT22;27616;51.420;6.788;2022-12-22T14:08:00;9.80;99.90
41928;DHT22;27616;51.420;6.788;2022-12-22T14:10:32;9.90;99.90
41928;DHT22;27616;51.420;6.788;2022-12-22T14:13:00;9.90;99.90
41928;DHT22;27616;51.420;6.788;2022-12-22T14:15:26;9.90;99.90
41928;DHT22;27616;51.420;6.788;2022-12-22T14:17:52;9.80;99.90
41928;DHT22;27616;51.420;6.788;2022-12-22T14:20:23;9.80;99.90
41928;DHT22;27616;51.420;6.788;2022-12-22T14:25:41;9.70;99.90
41928;DHT22;27616;51.420;6.788;2022-12-22T14:28:22;9.70;99.90
41928;DHT22;27616;51.420;6.788;2022-12-22T14:30:54;9.80;99.90
41928;DHT22;27616;51.420;6.788;2022-12-22T14:38:39;9.70;99.90
41928;DHT22;27616;51.420;6.788;2022-12-22T14:41:28;9.60;99.90
41928;DHT22;27616;51.420;6.788;2022-12-22T14:52:17;9.60;99.90
41928;DHT22;27616;51.420;6.788;2022-12-22T14:54:49;9.60;99.90
41928;DHT22;27616;51.420;6.788;2022-12-22T14:57:26;9.60;99.90
41928;DHT22;27616;51.420;6.788;2022-12-22T15:00:05;9.60;99.90
41928;DHT22;27616;51.420;6.788;2022-12-22T15:02:37;9.60;99.90
41928;DHT22;27616;51.420;6.788;2022-12-22T15:05:30;9.60;99.90
41928;DHT22;27616;51.420;6.788;2022-12-22T15:07:56;9.60;99.90
41928;DHT22;27616;51.420;6.788;2022-12-22T15:10:23;9.60;99.90
41928;DHT22;27616;51.420;6.788;2022-12-22T15:12:54;9.60;99.90
41928;DHT22;27616;51.420;6.788;2022-12-22T15:15:21;9.50;99.90
41928;DHT22;27616;51.420;6.788;2022-12-22T15:17:50;9.50;99.90
41928;DHT22;27616;51.420;6.788;2022-12-22T15:20:19;9.50;99.90
41928;DHT22;27616;51.420;6.788;2022-12-22T15:22:46;9.50;99.90
41928;DHT22;27616;51.420;6.788;2022-12-22T15:25:14;9.50;99.90
41928;DHT22;27616;51.420;6.788;2022-12-22T15:27:40;9.50;99.90
41928;DHT22;27616;51.420;6.788;2022-12-22T15:30:06;9.50;99.90
41928;DHT22;27616;51.420;6.788;2022-12-22T15:32:32;9.40;99.90
41928;DHT22;27616;51.420;6.788;2022-12-22T15:34:59;9.40;99.90
41928;DHT22;27616;51.420;6.788;2022-12-22T15:37:26;9.40;99.90
41928;DHT22;27616;51.420;6.788;2022-12-22T15:39:52;9.40;99.90
41928;DHT22;27616;51.420;6.788;2022-12-22T15:42:18;9.40;99.90
41928;DHT22;27616;51.420;6.788;2022-12-22T15:44:43;9.30;99.90
41928;DHT22;27616;51.420;6.788;2022-12-22T15:47:10;9.30;99.90
41928;DHT22;27616;51.420;6.788;2022-12-22T15:49:36;9.30;99.90
41928;DHT22;27616;51.420;6.788;2022-12-22T15:52:03;9.20;99.90
41928;DHT22;27616;51.420;6.788;2022-12-22T15:54:31;9.20;99.90
41928;DHT22;27616;51.420;6.788;2022-12-22T15:56:58;9.10;99.90
41928;DHT22;27616;51.420;6.788;2022-12-22T15:59:26;9.10;99.90
41928;DHT22;27616;51.420;6.788;2022-12-22T16:01:53;9.00;99.90
41928;DHT22;27616;51.420;6.788;2022-12-22T16:04:19;9.10;99.90
41928;DHT22;27616;51.420;6.788;2022-12-22T16:06:46;9.00;99.90
41928;DHT22;27616;51.420;6.788;2022-12-22T16:09:19;9.00;99.90
41928;DHT22;27616;51.420;6.788;2022-12-22T16:11:47;9.00;99.90
41928;DHT22;27616;51.420;6.788;2022-12-22T16:14:13;9.00;99.90
41928;DHT22;27616;51.420;6.788;2022-12-22T16:16:39;9.00;99.90
41928;DHT22;27616;51.420;6.788;2022-12-22T16:19:11;9.00;99.90
41928;DHT22;27616;51.420;6.788;2022-12-22T16:21:38;8.90;99.90
41928;DHT22;27616;51.420;6.788;2022-12-22T16:24:05;8.90;99.90
41928;DHT22;27616;51.420;6.788;2022-12-22T16:26:31;8.90;99.90
41928;DHT22;27616;51.420;6.788;2022-12-22T16:28:57;8.80;99.90
41928;DHT22;27616;51.420;6.788;2022-12-22T16:31:24;8.70;99.90
41928;DHT22;27616;51.420;6.788;2022-12-22T16:33:50;8.70;99.90
41928;DHT22;27616;51.420;6.788;2022-12-22T16:36:16;8.60;99.90
41928;DHT22;27616;51.420;6.788;2022-12-22T16:38:42;8.60;99.90
41928;DHT22;27616;51.420;6.788;2022-12-22T16:41:18;8.60;99.90
41928;DHT22;27616;51.420;6.788;2022-12-22T16:43:44;8.50;99.90
41928;DHT22;27616;51.420;6.788;2022-12-22T16:46:15;8.50;99.90
41928;DHT22;27616;51.420;6.788;2022-12-22T16:48:52;8.40;99.90
41928;DHT22;27616;51.420;6.788;2022-12-22T16:51:28;8.40;99.90
41928;DHT22;27616;51.420;6.788;2022-12-22T16:53:58;8.40;99.90
41928;DHT22;27616;51.420;6.788;2022-12-22T16:56:23;8.30;99.90
41928;DHT22;27616;51.420;6.788;2022-12-22T16:58:51;8.30;99.90
41928;DHT22;27616;51.420;6.788;2022-12-22T17:01:33;8.40;99.90
41928;DHT22;27616;51.420;6.788;2022-12-22T17:04:03;8.30;99.90
41928;DHT22;27616;51.420;6.788;2022-12-22T17:06:30;8.40;99.90
41928;DHT22;27616;51.420;6.788;2022-12-22T17:08:56;8.40;99.90
41928;DHT22;27616;51.420;6.788;2022-12-22T17:11:24;8.40;99.90
41928;DHT22;27616;51.420;6.788;2022-12-22T17:13:51;8.40;99.90
41928;DHT22;27616;51.420;6.788;2022-12-22T17:16:20;8.40;99.90
41928;DHT22;27616;51.420;6.788;2022-12-22T17:18:46;8.40;99.90
41928;DHT22;27616;51.420;6.788;2022-12-22T17:21:15;8.40;99.90
41928;DHT22;27616;51.420;6.788;2022-12-22T17:23:50;8.40;99.90
41928;DHT22;27616;51.420;6.788;2022-12-22T17:26:22;8.50;99.90
41928;DHT22;27616;51.420;6.788;2022-12-22T17:28:49;8.50;99.90
41928;DHT22;27616;51.420;6.788;2022-12-22T17:31:18;8.50;99.90
41928;DHT22;27616;51.420;6.788;2022-12-22T17:33:44;8.50;99.90
41928;DHT22;27616;51.420;6.788;2022-12-22T17:36:29;8.60;99.90
41928;DHT22;27616;51.420;6.788;2022-12-22T17:38:55;8.60;99.90
41928;DHT22;27616;51.420;6.788;2022-12-22T17:41:21;8.70;99.90
41928;DHT22;27616;51.420;6.788;2022-12-22T17:43:47;8.70;99.90
41928;DHT22;27616;51.420;6.788;2022-12-22T17:46:17;8.70;99.90
41928;DHT22;27616;51.420;6.788;2022-12-22T17:48:44;8.70;99.90
41928;DHT22;27616;51.420;6.788;2022-12-22T17:51:22;8.70;99.90
41928;DHT22;27616;51.420;6.788;2022-12-22T17:53:48;8.70;99.90
41928;DHT22;27616;51.420;6.788;2022-12-22T17:56:19;8.60;99.90
41928;DHT22;27616;51.420;6.788;2022-12-22T17:58:45;8.70;99.90
41928;DHT22;27616;51.420;6.788;2022-12-22T18:01:31;8.70;99.90
41928;DHT22;27616;51.420;6.788;2022-12-22T18:03:57;8.70;99.90
41928;DHT22;27616;51.420;6.788;2022-12-22T18:06:29;8.70;99.90
41928;DHT22;27616;51.420;6.788;2022-12-22T18:08:56;8.70;99.90
41928;DHT22;27616;51.420;6.788;2022-12-22T18:11:22;8.70;99.90
41928;DHT22;27616;51.420;6.788;2022-12-22T18:13:49;8.70;99.90
41928;DHT22;27616;51.420;6.788;2022-12-22T18:16:17;8.70;99.90
41928;DHT22;27616;51.420;6.788;2022-12-22T18:18:44;8.80;99.90
41928;DHT22;27616;51.420;6.788;2022-12-22T18:21:22;8.80;99.90
41928;DHT22;27616;51.420;6.788;2022-12-22T18:23:49;8.80;99.90